Time;durP1;ratioP1;P1;durP2;ratioP2;P2;SDS_P1;SDS_P2;PMS_P1;PMS_P2;Temp;Humidity;BMP_temperature;BMP_pressure;BME280_temperature;BME280_humidity;BME280_pressure;Samples;Min_cycle;Max_cycle;Signal;HPM_P1;HPM_P2
2022/08/14 00:02:09;;;;;;;0.88;0.68;;;18.00;99.90;;;;;;4959367;28;20020;-76
2022/08/14 00:04:36;;;;;;;1.67;0.82;;;18.10;99.90;;;;;;4959593;29;20047;-75
2022/08/14 00:07:03;;;;;;;0.65;0.55;;;17.90;99.90;;;;;;4959465;28;20055;-75
2022/08/14 00:09:29;;;;;;;1.85;1.10;;;17.90;99.90;;;;;;4959761;29;20048;-76
2022/08/14 00:11:55;;;;;;;0.13;0.13;;;17.70;99.90;;;;;;4959190;29;20054;-76
2022/08/14 00:14:21;;;;;;;0.20;0.20;;;17.70;99.90;;;;;;4958909;29;20067;-75
2022/08/14 00:16:49;;;;;;;0.57;0.43;;;17.60;99.90;;;;;;4959498;29;20042;-76
2022/08/14 00:19:15;;;;;;;0.60;0.50;;;17.60;99.90;;;;;;4959157;29;20095;-76
2022/08/14 00:21:40;;;;;;;1.23;0.63;;;17.50;99.90;;;;;;4959570;28;20052;-75
2022/08/14 00:24:06;;;;;;;0.25;0.10;;;17.50;99.90;;;;;;4959257;28;20063;-76
2022/08/14 00:26:32;;;;;;;0.32;0.32;;;17.40;99.90;;;;;;4959432;28;20040;-75
2022/08/14 00:28:57;;;;;;;1.10;0.65;;;17.40;99.90;;;;;;4959043;28;20040;-75
2022/08/14 00:31:23;;;;;;;0.85;0.80;;;17.50;99.90;;;;;;4958504;29;20099;-76
2022/08/14 00:33:49;;;;;;;0.63;0.40;;;17.50;99.90;;;;;;4959070;29;20096;-75
2022/08/14 00:36:15;;;;;;;0.38;0.38;;;17.40;99.90;;;;;;4958090;28;20043;-75
2022/08/14 00:38:40;;;;;;;0.65;0.60;;;17.30;99.90;;;;;;4958963;29;20031;-76
2022/08/14 00:41:09;;;;;;;0.40;0.13;;;17.20;99.90;;;;;;4958753;28;20095;-76
2022/08/14 00:43:35;;;;;;;0.68;0.68;;;17.10;99.90;;;;;;4958500;29;20082;-75
2022/08/14 00:46:04;;;;;;;1.88;0.93;;;17.00;99.90;;;;;;4961637;29;20042;-75
2022/08/14 00:48:30;;;;;;;0.43;0.35;;;17.00;99.90;;;;;;4962635;29;20035;-75
2022/08/14 00:50:56;;;;;;;0.20;0.20;;;16.90;99.90;;;;;;4960955;29;20051;-76
2022/08/14 00:53:22;;;;;;;0.20;0.20;;;16.90;99.90;;;;;;4961846;28;20087;-75
2022/08/14 00:55:50;;;;;;;0.30;0.25;;;16.80;99.90;;;;;;4963021;29;20058;-75
2022/08/14 00:58:32;;;;;;;1.60;0.75;;;16.80;99.90;;;;;;4962173;28;20031;-75
2022/08/14 01:01:08;;;;;;;1.58;0.63;;;16.90;99.90;;;;;;4962436;28;20087;-74
2022/08/14 01:03:36;;;;;;;0.30;0.30;;;16.90;99.90;;;;;;4962699;29;20024;-75
2022/08/14 01:06:03;;;;;;;0.30;0.30;;;17.00;99.90;;;;;;4953974;28;20052;-75
2022/08/14 01:08:30;;;;;;;2.67;1.20;;;17.00;99.90;;;;;;4943532;29;20035;-75
2022/08/14 01:10:57;;;;;;;0.47;0.47;;;17.10;99.90;;;;;;4943157;29;20173;-75
2022/08/14 01:13:26;;;;;;;0.22;0.22;;;17.00;99.90;;;;;;4943246;29;20059;-76
2022/08/14 01:15:57;;;;;;;0.98;0.73;;;17.00;99.90;;;;;;4943157;29;20052;-75
2022/08/14 01:21:16;;;;;;;0.63;0.30;;;16.90;99.90;;;;;;4960039;29;20059;-75
2022/08/14 01:23:45;;;;;;;0.75;0.45;;;17.10;99.90;;;;;;4943199;29;20040;-75
2022/08/14 01:26:12;;;;;;;1.17;1.08;;;16.90;99.90;;;;;;4955375;29;20036;-75
2022/08/14 01:28:38;;;;;;;0.82;0.65;;;16.80;99.90;;;;;;4962175;28;20051;-75
2022/08/14 01:31:11;;;;;;;0.32;0.30;;;17.90;99.90;;;;;;4961649;29;20055;-76
2022/08/14 01:33:39;;;;;;;2.88;1.33;;;16.70;99.90;;;;;;4961038;29;20048;-76
2022/08/14 01:36:06;;;;;;;2.55;0.65;;;16.80;99.90;;;;;;4961942;29;20054;-75
2022/08/14 01:38:33;;;;;;;2.78;0.73;;;16.80;99.90;;;;;;4962081;29;20088;-75
2022/08/14 01:41:06;;;;;;;1.73;0.90;;;16.70;99.90;;;;;;4962043;29;20056;-75
2022/08/14 01:43:40;;;;;;;0.90;0.63;;;16.80;99.90;;;;;;4962220;28;20064;-75
2022/08/14 01:46:10;;;;;;;1.13;0.70;;;16.80;99.90;;;;;;4961420;28;20040;-75
2022/08/14 01:48:38;;;;;;;1.95;1.00;;;16.90;99.90;;;;;;4962227;29;20054;-75
2022/08/14 01:51:07;;;;;;;6.55;1.40;;;17.10;99.90;;;;;;4945392;29;20068;-75
2022/08/14 01:53:33;;;;;;;1.10;0.80;;;16.80;99.90;;;;;;4961582;29;20051;-75
2022/08/14 01:56:07;;;;;;;0.60;0.45;;;16.80;99.90;;;;;;4960988;28;20103;-75
2022/08/14 01:58:33;;;;;;;1.33;0.95;;;16.70;99.90;;;;;;4962145;29;20051;-75
2022/08/14 02:00:59;;;;;;;0.55;0.55;;;16.80;99.90;;;;;;4961925;28;20051;-75
2022/08/14 02:03:29;;;;;;;0.80;0.45;;;16.70;99.90;;;;;;4960995;28;20052;-76
2022/08/14 02:05:58;;;;;;;0.20;0.20;;;16.80;99.90;;;;;;4961824;29;20100;-75
2022/08/14 02:08:26;;;;;;;0.57;0.38;;;16.70;99.90;;;;;;4960709;29;20084;-75
2022/08/14 02:11:15;;;;;;;2.13;1.65;;;16.60;99.90;;;;;;4961298;29;20058;-75
2022/08/14 02:13:39;;;;;;;;;;;16.60;99.90;;;;;;4960978;28;20043;-75
2022/08/14 02:16:05;;;;;;;0.63;0.63;;;16.60;99.90;;;;;;4961141;29;19950;-75
2022/08/14 02:18:32;;;;;;;2.15;0.63;;;16.50;99.90;;;;;;4960447;29;20034;-75
2022/08/14 02:20:57;;;;;;;0.98;0.82;;;16.50;99.90;;;;;;4961344;29;20065;-76
2022/08/14 02:23:24;;;;;;;0.93;0.73;;;16.50;99.90;;;;;;4960627;29;20112;-75
2022/08/14 02:25:49;;;;;;;1.65;0.38;;;16.40;99.90;;;;;;4971438;28;20046;-75
2022/08/14 02:28:15;;;;;;;1.42;0.80;;;16.50;99.90;;;;;;4961988;29;20044;-76
2022/08/14 02:30:40;;;;;;;1.60;1.00;;;16.40;99.90;;;;;;4960192;28;20058;-76
2022/08/14 02:33:06;;;;;;;1.52;1.10;;;16.40;99.90;;;;;;4961211;28;20034;-76
2022/08/14 02:35:32;;;;;;;1.80;1.42;;;16.40;99.90;;;;;;4960479;29;20063;-76
2022/08/14 02:37:58;;;;;;;0.50;0.50;;;16.40;99.90;;;;;;4960826;29;20091;-75
2022/08/14 02:40:24;;;;;;;0.43;0.43;;;16.30;99.90;;;;;;4961239;29;20055;-75
2022/08/14 02:42:50;;;;;;;0.90;0.70;;;16.20;99.90;;;;;;4961428;29;20068;-75
2022/08/14 02:45:15;;;;;;;2.38;1.30;;;16.20;99.90;;;;;;4961022;29;20028;-75
2022/08/14 02:47:41;;;;;;;2.50;0.85;;;16.30;99.90;;;;;;4960990;29;20034;-75
2022/08/14 02:50:07;;;;;;;0.20;0.20;;;17.40;99.90;;;;;;4960759;29;20051;-75
2022/08/14 02:52:33;;;;;;;0.55;0.55;;;16.30;99.90;;;;;;4960660;29;20040;-74
2022/08/14 02:54:59;;;;;;;2.35;1.00;;;16.30;99.90;;;;;;4961154;28;20024;-75
2022/08/14 02:57:27;;;;;;;1.13;0.90;;;16.30;99.90;;;;;;4961091;28;20055;-75
2022/08/14 02:59:53;;;;;;;1.25;0.85;;;16.20;99.90;;;;;;4960948;29;20048;-75
2022/08/14 03:02:18;;;;;;;0.85;0.38;;;16.20;99.90;;;;;;4960653;29;20047;-75
2022/08/14 03:04:46;;;;;;;2.03;0.65;;;16.10;99.90;;;;;;4961075;29;20075;-73
2022/08/14 03:07:15;;;;;;;4.18;1.52;;;16.30;99.90;;;;;;4959393;29;20066;-74
2022/08/14 03:09:41;;;;;;;0.90;0.65;;;16.10;99.90;;;;;;4960125;29;20068;-74
2022/08/14 03:12:07;;;;;;;1.05;0.80;;;16.00;99.90;;;;;;4960400;28;20019;-74
2022/08/14 03:14:38;;;;;;;1.13;0.75;;;16.00;99.90;;;;;;4960517;28;20036;-75
2022/08/14 03:17:09;;;;;;;0.77;0.77;;;16.00;99.90;;;;;;4960355;29;20051;-75
2022/08/14 03:19:35;;;;;;;0.73;0.73;;;16.00;99.90;;;;;;4960202;29;20051;-76
2022/08/14 03:22:00;;;;;;;3.03;1.30;;;16.00;99.90;;;;;;4959882;29;20067;-75
2022/08/14 03:24:26;;;;;;;0.55;0.40;;;16.00;99.90;;;;;;4954027;29;20039;-75
2022/08/14 03:26:55;;;;;;;2.05;1.23;;;15.90;99.90;;;;;;4960099;29;20055;-74
2022/08/14 03:29:20;;;;;;;1.83;0.75;;;15.90;99.90;;;;;;4959725;29;20031;-75
2022/08/14 03:31:50;;;;;;;1.55;1.17;;;15.90;99.90;;;;;;4959832;29;20043;-74
2022/08/14 03:34:15;;;;;;;1.30;0.93;;;15.80;99.90;;;;;;4959620;28;20052;-75
2022/08/14 03:36:44;;;;;;;0.52;0.52;;;15.80;99.90;;;;;;4959716;28;20035;-75
2022/08/14 03:39:11;;;;;;;1.67;0.82;;;15.90;99.90;;;;;;4960255;28;20092;-74
2022/08/14 03:41:37;;;;;;;1.52;1.05;;;16.00;99.90;;;;;;4960461;29;20079;-74
2022/08/14 03:44:05;;;;;;;2.65;1.77;;;16.00;99.90;;;;;;4959626;29;20028;-75
2022/08/14 03:46:34;;;;;;;3.00;1.13;;;16.00;99.90;;;;;;4959511;28;20035;-74
2022/08/14 03:49:01;;;;;;;0.40;0.40;;;16.00;99.90;;;;;;4959925;28;20044;-74
2022/08/14 03:51:27;;;;;;;0.80;0.60;;;15.90;99.90;;;;;;4959411;29;20056;-75
2022/08/14 03:53:56;;;;;;;0.52;0.52;;;16.00;99.90;;;;;;4974402;28;20028;-75
2022/08/14 03:56:24;;;;;;;2.03;1.75;;;16.10;99.90;;;;;;4959457;29;20047;-74
2022/08/14 03:58:54;;;;;;;1.10;1.00;;;16.70;99.90;;;;;;4959323;28;20024;-74
2022/08/14 04:01:22;;;;;;;2.03;1.48;;;16.00;99.90;;;;;;4958634;29;20075;-75
2022/08/14 04:03:49;;;;;;;1.33;1.23;;;16.00;99.90;;;;;;4958852;29;20047;-74
2022/08/14 04:06:16;;;;;;;3.30;1.90;;;16.10;99.90;;;;;;4959259;29;20051;-75
2022/08/14 04:08:42;;;;;;;3.95;1.63;;;16.60;99.90;;;;;;4958673;29;20068;-74
2022/08/14 04:11:09;;;;;;;2.35;1.33;;;16.00;99.90;;;;;;4958511;29;20035;-73
2022/08/14 04:13:37;;;;;;;1.25;1.15;;;16.00;99.90;;;;;;4958395;29;20079;-74
2022/08/14 04:16:09;;;;;;;6.40;1.23;;;16.10;99.90;;;;;;4958956;29;20035;-74
2022/08/14 04:18:45;;;;;;;4.63;0.85;;;16.10;99.90;;;;;;4958894;29;20048;-74
2022/08/14 04:21:11;;;;;;;4.10;2.65;;;16.20;99.90;;;;;;4952143;29;20040;-74
2022/08/14 04:23:38;;;;;;;2.35;1.85;;;16.30;99.90;;;;;;4958419;29;20091;-74
2022/08/14 04:26:07;;;;;;;1.15;0.75;;;16.30;99.90;;;;;;4939326;29;20060;-74
2022/08/14 04:28:35;;;;;;;2.10;1.75;;;16.30;99.90;;;;;;4941967;29;20044;-75
2022/08/14 04:31:01;;;;;;;1.67;1.15;;;16.40;99.90;;;;;;4957829;29;20051;-75
2022/08/14 04:33:27;;;;;;;1.67;0.85;;;16.40;99.90;;;;;;4957925;29;20083;-74
2022/08/14 04:35:55;;;;;;;2.28;1.58;;;16.50;99.90;;;;;;4958734;29;20052;-74
2022/08/14 04:43:54;;;;;;;1.23;1.05;;;16.30;99.90;;;;;;4958834;29;20036;-74
2022/08/14 04:46:22;;;;;;;2.50;1.27;;;16.40;99.90;;;;;;4958633;29;20031;-74
2022/08/14 04:48:49;;;;;;;2.08;1.77;;;16.50;99.90;;;;;;4958407;29;20040;-74
2022/08/14 04:51:25;;;;;;;1.02;0.95;;;16.50;99.90;;;;;;4957587;29;20050;-74
2022/08/14 04:53:55;;;;;;;2.60;1.50;;;16.60;99.90;;;;;;4972250;28;20048;-74
2022/08/14 04:56:23;;;;;;;1.55;1.15;;;17.00;99.90;;;;;;4958225;29;20040;-74
2022/08/14 04:58:50;;;;;;;2.05;1.60;;;17.00;99.90;;;;;;4957507;29;20048;-75
2022/08/14 05:01:16;;;;;;;3.33;2.17;;;17.00;99.90;;;;;;4939260;29;20032;-74
2022/08/14 05:03:45;;;;;;;1.27;0.93;;;17.00;99.90;;;;;;4938421;29;20055;-74
2022/08/14 05:06:12;;;;;;;2.72;1.20;;;17.20;99.90;;;;;;4957243;29;20070;-74
2022/08/14 05:08:39;;;;;;;1.58;1.35;;;17.30;99.90;;;;;;4957316;29;20048;-75
2022/08/14 05:11:06;;;;;;;2.53;2.10;;;17.40;99.90;;;;;;4958998;29;20094;-75
2022/08/14 05:13:34;;;;;;;3.20;2.10;;;17.40;99.90;;;;;;4958698;28;20032;-75
2022/08/14 05:16:04;;;;;;;1.00;0.82;;;17.50;99.90;;;;;;4958784;29;20067;-75
2022/08/14 05:18:36;;;;;;;1.80;1.08;;;17.50;99.90;;;;;;4958509;29;20051;-75
2022/08/14 05:21:05;;;;;;;1.48;1.30;;;17.70;99.90;;;;;;4956771;29;20054;-76
2022/08/14 05:23:33;;;;;;;0.95;0.75;;;17.80;99.90;;;;;;4957209;29;20051;-76
2022/08/14 05:26:04;;;;;;;2.22;1.20;;;17.90;99.90;;;;;;4957502;29;20032;-76
2022/08/14 05:28:33;;;;;;;2.05;1.30;;;18.10;99.90;;;;;;4957386;29;20043;-76
2022/08/14 05:31:07;;;;;;;2.72;1.95;;;18.20;99.90;;;;;;4958463;29;20055;-75
2022/08/14 05:33:34;;;;;;;7.45;1.00;;;18.20;99.90;;;;;;4960132;29;20047;-76
2022/08/14 05:36:10;;;;;;;2.38;1.33;;;18.30;99.90;;;;;;4942398;29;20048;-75
2022/08/14 05:38:38;;;;;;;0.45;0.45;;;18.30;99.90;;;;;;4958166;28;20036;-76
2022/08/14 05:41:07;;;;;;;3.35;2.05;;;18.30;99.90;;;;;;4967734;28;20055;-75
2022/08/14 05:43:33;;;;;;;1.60;1.25;;;18.40;99.90;;;;;;4963945;28;20086;-76
2022/08/14 05:46:00;;;;;;;1.23;1.05;;;18.50;99.90;;;;;;4959964;28;20027;-78
2022/08/14 05:48:27;;;;;;;2.03;1.83;;;18.50;99.90;;;;;;4960292;29;20147;-75
2022/08/14 05:50:54;;;;;;;2.90;1.75;;;18.60;99.90;;;;;;4958706;28;20052;-75
2022/08/14 05:53:24;;;;;;;1.85;1.58;;;18.70;99.90;;;;;;4959942;28;20043;-71
2022/08/14 05:55:51;;;;;;;2.97;1.77;;;18.90;99.90;;;;;;4960289;28;20043;-72
2022/08/14 05:58:20;;;;;;;0.98;0.85;;;19.00;99.90;;;;;;4955327;29;20103;-72
2022/08/14 06:00:46;;;;;;;0.95;0.73;;;19.20;99.90;;;;;;4956255;28;20051;-75
2022/08/14 06:03:17;;;;;;;1.17;0.88;;;19.30;99.90;;;;;;4958418;28;20045;-73
2022/08/14 06:05:44;;;;;;;4.22;1.75;;;19.50;99.90;;;;;;4958783;28;20040;-75
2022/08/14 06:08:20;;;;;;;0.63;0.50;;;19.60;99.90;;;;;;4955946;29;20063;-74
2022/08/14 06:10:46;;;;;;;1.30;1.02;;;19.80;99.90;;;;;;4959611;28;20050;-75
2022/08/14 06:13:13;;;;;;;1.27;1.05;;;20.00;99.90;;;;;;4961377;29;20034;-77
2022/08/14 06:15:40;;;;;;;1.80;1.63;;;20.10;99.90;;;;;;4963023;28;20040;-77
2022/08/14 06:18:06;;;;;;;4.22;2.58;;;20.40;99.90;;;;;;4962183;28;20086;-75
2022/08/14 06:20:35;;;;;;;3.50;2.47;;;21.20;99.90;;;;;;4961450;28;20031;-77
2022/08/14 06:23:01;;;;;;;1.08;0.98;;;21.90;99.90;;;;;;4961503;28;20036;-77
2022/08/14 06:25:26;;;;;;;1.02;0.90;;;22.50;99.90;;;;;;4965275;28;20054;-76
2022/08/14 06:27:52;;;;;;;0.88;0.82;;;23.00;99.90;;;;;;4960935;28;20032;-77
2022/08/14 06:30:22;;;;;;;0.55;0.55;;;23.50;99.90;;;;;;4961127;28;20039;-77
2022/08/14 06:32:48;;;;;;;1.00;0.90;;;23.60;99.90;;;;;;4961642;28;20051;-76
2022/08/14 06:35:16;;;;;;;4.40;1.75;;;24.30;99.90;;;;;;4961350;28;20044;-77
2022/08/14 06:37:57;;;;;;;1.02;0.70;;;24.70;99.90;;;;;;4960795;28;20063;-76
2022/08/14 06:40:25;;;;;;;2.72;1.58;;;25.10;99.90;;;;;;4963373;28;20027;-77
2022/08/14 06:42:55;;;;;;;0.70;0.68;;;25.20;99.90;;;;;;4966157;28;20059;-77
2022/08/14 06:45:21;;;;;;;24.95;1.45;;;24.80;99.90;;;;;;4961486;28;20032;-75
2022/08/14 06:47:50;;;;;;;1.88;1.48;;;24.90;99.90;;;;;;4950677;28;20059;-78
2022/08/14 06:50:18;;;;;;;0.98;0.70;;;25.00;99.90;;;;;;4966361;28;20047;-77
2022/08/14 06:52:44;;;;;;;1.85;1.15;;;25.70;99.60;;;;;;4966215;28;20047;-77
2022/08/14 06:55:11;;;;;;;0.93;0.88;;;25.70;94.10;;;;;;4971741;28;20023;-79
2022/08/14 06:57:48;;;;;;;1.70;1.20;;;25.40;94.90;;;;;;4967535;28;20020;-78
2022/08/14 07:00:26;;;;;;;1.13;0.88;;;25.60;95.10;;;;;;4964831;28;20046;-78
2022/08/14 07:05:45;;;;;;;0.95;0.65;;;26.30;92.10;;;;;;4972241;28;20024;-80
2022/08/14 07:08:12;;;;;;;0.80;0.63;;;26.50;87.90;;;;;;4968079;28;20087;-78
2022/08/14 07:10:39;;;;;;;1.48;0.90;;;26.60;82.40;;;;;;4969618;28;20031;-77
2022/08/14 07:13:04;;;;;;;0.68;0.68;;;26.20;82.90;;;;;;4966036;28;20050;-77
2022/08/14 07:15:32;;;;;;;0.60;0.60;;;26.40;80.60;;;;;;4966668;28;20063;-74
2022/08/14 07:17:57;;;;;;;1.80;1.13;;;26.60;73.80;;;;;;4969010;28;20028;-77
2022/08/14 07:20:23;;;;;;;0.88;0.70;;;26.00;83.20;;;;;;4963632;28;20047;-77
2022/08/14 07:22:49;;;;;;;0.95;0.85;;;26.10;85.40;;;;;;4960656;28;20050;-76
2022/08/14 07:25:15;;;;;;;2.90;1.77;;;26.70;78.10;;;;;;4959747;28;20044;-75
2022/08/14 07:27:41;;;;;;;3.35;1.67;;;26.40;78.50;;;;;;4962157;28;20164;-75
2022/08/14 07:30:08;;;;;;;1.25;1.10;;;26.80;76.60;;;;;;4963756;28;20115;-77
2022/08/14 07:32:34;;;;;;;1.15;1.00;;;27.40;66.60;;;;;;4967732;28;20707;-76
2022/08/14 07:34:59;;;;;;;1.65;1.13;;;27.10;67.90;;;;;;4959735;28;20055;-77
2022/08/14 07:37:27;;;;;;;36.03;1.55;;;27.50;62.60;;;;;;4955320;28;20048;-75
2022/08/14 07:39:53;;;;;;;1.45;1.20;;;27.80;59.50;;;;;;4957503;28;20083;-75
2022/08/14 07:42:18;;;;;;;1.05;0.90;;;28.00;54.60;;;;;;4958099;28;20479;-74
2022/08/14 07:44:44;;;;;;;2.33;1.40;;;27.20;61.80;;;;;;4951411;28;20150;-74
2022/08/14 07:47:10;;;;;;;0.88;0.77;;;27.60;55.20;;;;;;4951231;29;20070;-74
2022/08/14 07:49:36;;;;;;;0.63;0.50;;;27.50;53.20;;;;;;4944274;29;20524;-74
2022/08/14 07:52:02;;;;;;;1.15;0.63;;;28.00;50.20;;;;;;4947049;29;20058;-74
2022/08/14 07:54:28;;;;;;;3.00;1.55;;;28.40;45.40;;;;;;4949366;29;20058;-74
2022/08/14 07:56:54;;;;;;;0.35;0.32;;;28.50;38.80;;;;;;4953033;29;20079;-75
2022/08/14 07:59:20;;;;;;;0.85;0.75;;;27.60;46.20;;;;;;4945681;29;20048;-75
2022/08/14 08:01:46;;;;;;;1.13;0.55;;;28.10;47.90;;;;;;4944343;29;20056;-75
2022/08/14 08:04:14;;;;;;;1.40;0.82;;;28.30;44.30;;;;;;4945663;29;20054;-75
2022/08/14 08:06:39;;;;;;;0.20;0.20;;;28.50;40.30;;;;;;4947704;29;20406;-75
2022/08/14 08:09:08;;;;;;;1.05;0.95;;;29.40;38.40;;;;;;4950544;28;20045;-76
2022/08/14 08:11:35;;;;;;;1.27;1.10;;;29.30;29.30;;;;;;4960032;28;20047;-74
2022/08/14 08:14:05;;;;;;;0.30;0.30;;;29.30;31.90;;;;;;4942006;29;20078;-77
2022/08/14 08:16:32;;;;;;;0.05;0.05;;;29.20;29.00;;;;;;4928181;29;20055;-74
2022/08/14 08:18:57;;;;;;;0.55;0.47;;;29.50;28.10;;;;;;4948858;28;20043;-75
2022/08/14 08:21:25;;;;;;;0.68;0.55;;;29.90;21.50;;;;;;4950975;28;20047;-75
2022/08/14 08:23:53;;;;;;;0.95;0.85;;;29.30;22.50;;;;;;4965817;28;20066;-74
2022/08/14 08:26:19;;;;;;;3.55;1.05;;;29.30;22.70;;;;;;4951991;28;20123;-75
2022/08/14 08:28:58;;;;;;;0.95;0.77;;;29.40;21.60;;;;;;4974418;28;20048;-74
2022/08/14 08:31:24;;;;;;;0.70;0.55;;;29.50;24.30;;;;;;4960029;28;20110;-74
2022/08/14 08:33:53;;;;;;;0.73;0.50;;;29.40;22.80;;;;;;4944207;28;20082;-75
2022/08/14 08:36:19;;;;;;;0.63;0.40;;;29.00;23.80;;;;;;4960112;28;20047;-75
2022/08/14 08:39:10;;;;;;;1.60;0.80;;;29.20;23.80;;;;;;4951211;28;20051;-74
2022/08/14 08:41:46;;;;;;;6.45;1.42;;;29.70;22.40;;;;;;4947759;29;20056;-74
2022/08/14 08:44:12;;;;;;;0.32;0.32;;;29.70;20.90;;;;;;4955705;28;20558;-74
2022/08/14 08:46:39;;;;;;;1.95;0.93;;;29.90;19.20;;;;;;4944516;29;20060;-75
2022/08/14 08:49:09;;;;;;;0.85;0.70;;;30.20;17.90;;;;;;4950486;29;20040;-75
2022/08/14 08:51:39;;;;;;;1.77;0.77;;;29.90;17.60;;;;;;4950275;28;20066;-75
2022/08/14 08:54:06;;;;;;;1.05;0.80;;;30.30;15.70;;;;;;4946099;28;20491;-74
2022/08/14 08:56:37;;;;;;;0.75;0.57;;;29.90;12.10;;;;;;4946541;29;20131;-74
2022/08/14 08:59:25;;;;;;;2.25;1.05;;;29.80;15.60;;;;;;4951059;28;20458;-74
2022/08/14 09:01:52;;;;;;;1.65;1.25;;;29.70;14.30;;;;;;4953851;28;20067;-74
2022/08/14 09:04:19;;;;;;;0.40;0.40;;;30.30;14.10;;;;;;4961297;28;20062;-74
2022/08/14 09:06:51;;;;;;;0.32;0.32;;;30.20;10.90;;;;;;4954569;28;20105;-75
2022/08/14 09:09:21;;;;;;;0.82;0.77;;;30.30;10.60;;;;;;4958904;28;20047;-74
2022/08/14 09:11:47;;;;;;;0.35;0.30;;;29.60;12.30;;;;;;4950805;29;20057;-74
2022/08/14 09:14:13;;;;;;;0.38;0.38;;;30.00;9.90;;;;;;4955585;28;20040;-74
2022/08/14 09:16:42;;;;;;;0.20;0.20;;;30.40;10.30;;;;;;4952956;28;20082;-75
2022/08/14 09:19:08;;;;;;;0.70;0.32;;;30.10;6.80;;;;;;4954350;29;20043;-75
2022/08/14 09:21:37;;;;;;;0.65;0.60;;;29.60;9.40;;;;;;4955194;28;20450;-75
2022/08/14 09:24:04;;;;;;;3.20;1.17;;;29.90;11.00;;;;;;4947987;28;20187;-74
2022/08/14 09:26:29;;;;;;;1.35;0.88;;;29.90;8.90;;;;;;4951129;28;20082;-72
2022/08/14 09:28:55;;;;;;;0.47;0.47;;;30.60;7.30;;;;;;4953606;28;20126;-74
2022/08/14 09:31:23;;;;;;;1.65;0.73;;;30.90;6.00;;;;;;4957959;28;20122;-74
2022/08/14 09:33:58;;;;;;;0.47;0.47;;;31.10;4.40;;;;;;4960436;28;20054;-74
2022/08/14 09:36:26;;;;;;;1.52;0.88;;;31.60;5.00;;;;;;4962636;28;20075;-74
2022/08/14 09:39:10;;;;;;;0.68;0.40;;;32.10;2.20;;;;;;4955712;28;20040;-73
2022/08/14 09:42:15;;;;;;;1.65;0.80;;;32.40;3.70;;;;;;4954573;28;20047;-74
2022/08/14 09:44:53;;;;;;;0.90;0.60;;;31.30;1.60;;;;;;4969429;28;20109;-75
2022/08/14 09:47:19;;;;;;;0.35;0.35;;;31.80;1.00;;;;;;4970732;28;20107;-77
2022/08/14 09:49:46;;;;;;;0.85;0.57;;;30.50;1.00;;;;;;4970397;28;20043;-75
2022/08/14 09:52:14;;;;;;;1.85;0.70;;;30.10;1.00;;;;;;4966759;28;20130;-76
2022/08/14 09:54:45;;;;;;;1.50;0.45;;;30.30;2.50;;;;;;4969354;28;20054;-76
2022/08/14 09:57:26;;;;;;;0.20;0.20;;;29.70;3.20;;;;;;4967388;28;20035;-76
2022/08/14 09:59:52;;;;;;;0.30;0.30;;;29.30;3.80;;;;;;4967491;28;20039;-74
2022/08/14 10:02:23;;;;;;;0.45;0.45;;;29.50;5.90;;;;;;4968681;28;20111;-75
2022/08/14 10:05:32;;;;;;;1.35;0.75;;;29.50;5.30;;;;;;4971025;28;20019;-75
2022/08/14 10:07:59;;;;;;;0.38;0.32;;;29.80;5.80;;;;;;4966682;28;20054;-76
2022/08/14 10:10:37;;;;;;;1.33;0.50;;;29.90;3.30;;;;;;4970317;28;20024;-75
2022/08/14 10:13:06;;;;;;;0.30;0.30;;;30.00;3.50;;;;;;4990758;28;20035;-76
2022/08/14 10:15:44;;;;;;;1.98;0.68;;;29.80;2.90;;;;;;4967699;28;20031;-75
2022/08/14 10:18:15;;;;;;;0.73;0.60;;;30.60;2.00;;;;;;4976224;28;20046;-76
2022/08/14 10:20:51;;;;;;;0.15;0.15;;;30.70;1.00;;;;;;4963436;28;20046;-74
2022/08/14 10:23:19;;;;;;;0.77;0.43;;;30.50;1.90;;;;;;4965668;28;20054;-75
2022/08/14 10:25:56;;;;;;;0.75;0.63;;;30.10;1.20;;;;;;4969773;28;20103;-76
2022/08/14 10:28:22;;;;;;;0.57;0.32;;;30.40;2.50;;;;;;4954370;28;20027;-75
2022/08/14 10:30:53;;;;;;;0.45;0.30;;;30.70;1.00;;;;;;4967230;28;20043;-75
2022/08/14 10:33:32;;;;;;;10.10;1.80;;;30.50;1.00;;;;;;4971281;28;20056;-75
2022/08/14 10:36:02;;;;;;;0.95;0.30;;;30.40;1.00;;;;;;4968937;28;20075;-74
2022/08/14 10:38:33;;;;;;;0.10;0.10;;;30.40;1.00;;;;;;4961258;28;20047;-77
2022/08/14 10:41:12;;;;;;;0.43;0.30;;;30.00;1.00;;;;;;4959836;28;20058;-77
2022/08/14 10:43:43;;;;;;;0.55;0.40;;;30.00;1.00;;;;;;4960392;28;20095;-76
2022/08/14 10:46:14;;;;;;;0.15;0.15;;;30.20;1.00;;;;;;4960480;29;20060;-77
2022/08/14 10:48:42;;;;;;;0.70;0.60;;;30.30;1.00;;;;;;4960657;29;20032;-76
2022/08/14 10:51:08;;;;;;;0.82;0.77;;;30.20;1.30;;;;;;4960182;28;20043;-77
2022/08/14 10:53:36;;;;;;;2.60;0.90;;;30.20;2.30;;;;;;4960939;28;20079;-76
2022/08/14 10:56:08;;;;;;;1.35;0.80;;;30.20;2.20;;;;;;4959223;28;20046;-76
2022/08/14 10:58:35;;;;;;;0.70;0.40;;;30.10;1.80;;;;;;4941065;29;20039;-76
2022/08/14 11:01:04;;;;;;;0.82;0.57;;;30.10;2.20;;;;;;4940819;29;20036;-76
2022/08/14 11:04:06;;;;;;;;;;;;;;;;;;;;;
2022/08/14 11:06:52;;;;;;;1.13;0.73;;;30.70;2.10;;;;;;4943438;29;20067;-73
2022/08/14 11:09:20;;;;;;;0.90;0.80;;;30.30;1.00;;;;;;4964177;28;20028;-76
2022/08/14 11:11:48;;;;;;;0.45;0.38;;;30.10;1.00;;;;;;4969256;28;20060;-76
2022/08/14 11:14:25;;;;;;;0.45;0.43;;;30.50;1.00;;;;;;4968966;28;20075;-76
2022/08/14 11:16:52;;;;;;;1.50;0.50;;;30.50;1.00;;;;;;4969010;28;20030;-75
2022/08/14 11:19:22;;;;;;;1.85;0.55;;;31.30;1.00;;;;;;4972745;28;20031;-75
2022/08/14 11:21:48;;;;;;;0.70;0.43;;;31.40;1.00;;;;;;4953622;29;20409;-75
2022/08/14 11:24:18;;;;;;;0.75;0.50;;;31.90;1.00;;;;;;4945212;29;20139;-74
2022/08/14 11:26:44;;;;;;;0.45;0.45;;;31.00;1.00;;;;;;4948652;29;20059;-73
2022/08/14 11:29:10;;;;;;;4.47;1.27;;;31.40;1.00;;;;;;4945458;28;20039;-73
2022/08/14 11:31:36;;;;;;;0.90;0.75;;;32.10;1.00;;;;;;4947002;28;20054;-72
2022/08/14 11:34:02;;;;;;;1.65;0.57;;;31.70;1.00;;;;;;4948733;28;20055;-72
2022/08/14 11:36:28;;;;;;;0.95;0.73;;;31.60;1.00;;;;;;4939503;28;20090;-73
2022/08/14 11:38:54;;;;;;;0.68;0.57;;;32.20;1.00;;;;;;4929078;29;20110;-73
2022/08/14 11:41:20;;;;;;;0.75;0.63;;;31.80;1.00;;;;;;4944349;28;20050;-75
2022/08/14 11:43:47;;;;;;;1.15;0.82;;;31.60;1.00;;;;;;4950169;28;20066;-74
2022/08/14 11:46:15;;;;;;;1.08;0.73;;;31.40;1.00;;;;;;4962026;28;20048;-74
2022/08/14 11:48:51;;;;;;;1.15;0.65;;;31.90;1.00;;;;;;4959728;28;20073;-75
2022/08/14 11:51:24;;;;;;;0.90;0.75;;;32.20;1.00;;;;;;4953808;28;20043;-75
2022/08/14 11:53:59;;;;;;;0.68;0.60;;;31.80;1.00;;;;;;4965710;28;20023;-74
2022/08/14 11:56:34;;;;;;;1.75;0.95;;;32.30;1.00;;;;;;4956540;28;20127;-75
2022/08/14 11:59:00;;;;;;;0.82;0.82;;;32.30;1.00;;;;;;4952350;29;20044;-75
2022/08/14 12:01:28;;;;;;;1.20;0.70;;;32.20;1.00;;;;;;4947905;29;20062;-75
2022/08/14 12:03:57;;;;;;;1.35;0.77;;;32.30;1.00;;;;;;4949513;29;20056;-74
2022/08/14 12:06:24;;;;;;;1.02;0.60;;;32.10;1.00;;;;;;4946988;29;20035;-74
2022/08/14 12:08:52;;;;;;;0.40;0.40;;;32.40;1.00;;;;;;4947361;29;20474;-75
2022/08/14 12:11:19;;;;;;;0.57;0.55;;;34.00;1.00;;;;;;4946300;29;20091;-76
2022/08/14 12:13:45;;;;;;;1.05;0.70;;;34.20;1.00;;;;;;4962213;28;20398;-75
2022/08/14 12:16:15;;;;;;;0.75;0.63;;;34.50;1.00;;;;;;4951976;28;20036;-75
2022/08/14 12:18:47;;;;;;;2.00;0.90;;;33.80;1.00;;;;;;4947257;28;20079;-76
2022/08/14 12:21:23;;;;;;;0.68;0.68;;;34.00;1.00;;;;;;4958044;28;20047;-76
2022/08/14 12:24:07;;;;;;;0.57;0.38;;;34.00;1.00;;;;;;4954459;28;20621;-76
2022/08/14 12:26:35;;;;;;;0.93;0.70;;;34.70;1.00;;;;;;4959120;28;20106;-77
2022/08/14 12:29:13;;;;;;;1.20;0.52;;;34.10;1.00;;;;;;4956366;28;20051;-77
2022/08/14 12:31:46;;;;;;;0.82;0.45;;;33.50;1.00;;;;;;4967445;28;20047;-75
2022/08/14 12:34:13;;;;;;;5.85;1.70;;;33.40;1.00;;;;;;4952152;29;20043;-74
2022/08/14 12:36:39;;;;;;;0.28;0.20;;;33.70;1.00;;;;;;4952368;29;20050;-75
2022/08/14 12:39:17;;;;;;;0.32;0.30;;;33.40;1.00;;;;;;4953052;29;20051;-75
2022/08/14 12:42:00;;;;;;;0.95;0.50;;;33.70;1.00;;;;;;4959201;29;20103;-73
2022/08/14 12:44:31;;;;;;;0.40;0.38;;;34.90;1.00;;;;;;4958077;29;20055;-74
2022/08/14 12:47:11;;;;;;;1.48;0.93;;;34.50;1.00;;;;;;4954126;29;20103;-74
2022/08/14 12:49:37;;;;;;;0.65;0.57;;;35.20;1.00;;;;;;4957253;29;20047;-74
2022/08/14 12:52:06;;;;;;;0.98;0.55;;;35.60;1.00;;;;;;4957726;29;20028;-74
2022/08/14 12:54:32;;;;;;;0.93;0.55;;;34.20;1.00;;;;;;4960280;29;20048;-74
2022/08/14 12:57:06;;;;;;;1.20;0.65;;;34.20;1.00;;;;;;4961261;29;20051;-74
2022/08/14 12:59:33;;;;;;;0.73;0.50;;;34.70;1.00;;;;;;4961002;29;20039;-74
2022/08/14 13:02:00;;;;;;;0.38;0.38;;;35.90;1.00;;;;;;4962434;29;20044;-75
2022/08/14 13:04:30;;;;;;;0.75;0.47;;;36.90;1.00;;;;;;4959275;28;20043;-75
2022/08/14 13:06:59;;;;;;;0.75;0.65;;;35.10;1.00;;;;;;4959004;29;20044;-75
2022/08/14 13:09:27;;;;;;;0.63;0.60;;;34.20;1.00;;;;;;4960976;29;20087;-75
2022/08/14 13:11:55;;;;;;;1.08;0.52;;;34.30;1.00;;;;;;4958939;29;20055;-74